Time;durP1;ratioP1;P1;durP2;ratioP2;P2;SDS_P1;SDS_P2;PMS_P1;PMS_P2;Temp;Humidity;BMP_temperature;BMP_pressure;BME280_temperature;BME280_humidity;BME280_pressure;Samples;Min_cycle;Max_cycle;Signal;HPM_P1;HPM_P2
2022/07/19 00:02:01;;;;;;;0.30;0.28;;;21.80;99.90;;;;;;5059046;28;20044;-68
2022/07/19 00:04:27;;;;;;;0.00;0.00;;;21.80;99.90;;;;;;5067921;28;20056;-67
2022/07/19 00:06:54;;;;;;;0.38;0.38;;;21.90;99.90;;;;;;5032809;28;20124;-68
2022/07/19 00:09:21;;;;;;;0.10;0.10;;;21.90;99.90;;;;;;5046011;28;20039;-68
2022/07/19 00:11:46;;;;;;;0.30;0.15;;;21.80;99.90;;;;;;5066906;28;20055;-68
2022/07/19 00:14:12;;;;;;;0.20;0.20;;;21.80;99.90;;;;;;5062421;28;20074;-68
2022/07/19 00:16:37;;;;;;;0.20;0.20;;;21.80;99.90;;;;;;5052045;28;20380;-68
2022/07/19 00:19:03;;;;;;;0.10;0.10;;;21.80;99.90;;;;;;5076234;28;20138;-67
2022/07/19 00:21:29;;;;;;;0.50;0.50;;;21.80;99.90;;;;;;5058357;28;20052;-68
2022/07/19 00:23:54;;;;;;;0.00;0.00;;;21.80;99.90;;;;;;5056994;28;20449;-67
2022/07/19 00:26:20;;;;;;;1.55;1.40;;;21.80;99.90;;;;;;5068931;28;20040;-68
2022/07/19 00:28:46;;;;;;;1.02;0.80;;;21.80;99.90;;;;;;5063038;28;20127;-67
2022/07/19 00:31:11;;;;;;;0.38;0.38;;;21.80;99.90;;;;;;5040866;28;20049;-68
2022/07/19 00:33:37;;;;;;;0.20;0.20;;;21.80;99.90;;;;;;5061450;28;20135;-67
2022/07/19 00:36:03;;;;;;;2.70;1.08;;;21.80;99.90;;;;;;5037257;28;20385;-67
2022/07/19 00:38:28;;;;;;;0.52;0.52;;;21.70;99.90;;;;;;5059751;28;20036;-66
2022/07/19 00:40:54;;;;;;;0.25;0.25;;;21.70;99.90;;;;;;5067148;28;20475;-67
2022/07/19 00:43:20;;;;;;;0.20;0.20;;;21.70;99.90;;;;;;5056939;28;20044;-67
2022/07/19 00:45:45;;;;;;;1.55;1.38;;;21.70;99.90;;;;;;5035361;28;20123;-67
2022/07/19 00:48:12;;;;;;;3.60;1.92;;;21.60;99.90;;;;;;5063532;28;20041;-67
2022/07/19 00:50:37;;;;;;;8.35;0.43;;;21.60;99.90;;;;;;5052334;28;20055;-68
2022/07/19 00:53:04;;;;;;;0.80;0.57;;;21.60;99.90;;;;;;5070533;28;20051;-67
2022/07/19 00:55:32;;;;;;;0.05;0.05;;;21.60;99.90;;;;;;5065564;28;20400;-67
2022/07/19 00:57:59;;;;;;;0.85;0.38;;;21.60;99.90;;;;;;5063727;28;20398;-68
2022/07/19 01:00:27;;;;;;;0.30;0.22;;;21.60;99.90;;;;;;5074649;28;20045;-68
2022/07/19 01:02:53;;;;;;;0.10;0.10;;;21.60;99.90;;;;;;5052342;28;20420;-68
2022/07/19 01:05:19;;;;;;;0.70;0.45;;;21.50;99.90;;;;;;5075790;28;20052;-68
2022/07/19 01:07:45;;;;;;;0.95;0.77;;;21.50;99.90;;;;;;5075735;28;20044;-68
2022/07/19 01:10:12;;;;;;;0.10;0.10;;;21.40;99.90;;;;;;5065175;28;20068;-68
2022/07/19 01:12:39;;;;;;;0.00;0.00;;;21.40;99.90;;;;;;5047458;28;20128;-68
2022/07/19 01:15:22;;;;;;;3.00;0.80;;;21.40;99.90;;;;;;5066039;28;20048;-68
2022/07/19 01:17:48;;;;;;;;;;;21.30;99.90;;;;;;5062917;28;20036;-67
2022/07/19 01:20:14;;;;;;;1.48;1.02;;;21.20;99.90;;;;;;5053014;28;20516;-68
2022/07/19 01:22:44;;;;;;;1.85;0.15;;;21.20;99.90;;;;;;5060704;28;20045;-68
2022/07/19 01:25:10;;;;;;;0.10;0.10;;;21.20;99.90;;;;;;5050349;28;20131;-67
2022/07/19 01:27:45;;;;;;;0.10;0.10;;;21.20;99.90;;;;;;5062838;28;20067;-68
2022/07/19 01:30:17;;;;;;;0.98;0.57;;;21.20;99.90;;;;;;5047689;28;20520;-68
2022/07/19 01:32:43;;;;;;;0.28;0.28;;;21.20;99.90;;;;;;5059462;28;20055;-68
2022/07/19 01:35:09;;;;;;;0.77;0.63;;;21.20;99.90;;;;;;5067967;28;20044;-68
2022/07/19 01:37:35;;;;;;;0.00;0.00;;;21.20;99.90;;;;;;5058351;28;20051;-68
2022/07/19 01:40:06;;;;;;;0.98;0.85;;;21.10;99.90;;;;;;5051586;28;20055;-68
2022/07/19 01:42:32;;;;;;;0.00;0.00;;;21.10;99.90;;;;;;5062831;28;20094;-68
2022/07/19 01:44:57;;;;;;;0.32;0.30;;;21.10;99.90;;;;;;5069103;28;20522;-68
2022/07/19 01:47:24;;;;;;;0.10;0.10;;;21.10;99.90;;;;;;5065931;28;20059;-68
2022/07/19 01:49:49;;;;;;;0.28;0.28;;;21.00;99.90;;;;;;5069337;28;20052;-68
2022/07/19 01:52:15;;;;;;;7.05;1.25;;;21.00;99.90;;;;;;5050343;28;20400;-68
2022/07/19 01:54:41;;;;;;;0.00;0.00;;;21.00;99.90;;;;;;5080089;28;20044;-68
2022/07/19 01:57:06;;;;;;;1.27;0.43;;;21.00;99.90;;;;;;5063092;28;20167;-68
2022/07/19 01:59:32;;;;;;;0.00;0.00;;;21.00;99.90;;;;;;5050900;28;20125;-68
2022/07/19 02:01:57;;;;;;;0.30;0.30;;;21.00;99.90;;;;;;5054326;28;20032;-68
2022/07/19 02:04:23;;;;;;;0.30;0.30;;;21.00;99.90;;;;;;5080081;28;20091;-68
2022/07/19 02:06:49;;;;;;;0.45;0.35;;;21.00;99.90;;;;;;5079772;28;20059;-68
2022/07/19 02:09:14;;;;;;;0.17;0.17;;;21.00;99.90;;;;;;5061352;28;20087;-67
2022/07/19 02:11:40;;;;;;;0.10;0.10;;;21.00;99.90;;;;;;5071027;28;20040;-68
2022/07/19 02:14:08;;;;;;;7.82;1.88;;;21.00;99.90;;;;;;5085858;28;20494;-67
2022/07/19 02:16:35;;;;;;;0.38;0.38;;;21.00;99.90;;;;;;5073867;28;20131;-68
2022/07/19 02:19:00;;;;;;;0.00;0.00;;;21.00;99.90;;;;;;5067828;28;20127;-68
2022/07/19 02:21:26;;;;;;;0.10;0.10;;;20.90;99.90;;;;;;5060436;28;20127;-68
2022/07/19 02:23:52;;;;;;;0.00;0.00;;;20.90;99.90;;;;;;5071618;28;20040;-67
2022/07/19 02:26:17;;;;;;;0.00;0.00;;;20.90;99.90;;;;;;5072963;28;20039;-68
2022/07/19 02:28:43;;;;;;;0.80;0.55;;;20.90;99.90;;;;;;5083152;28;20054;-68
2022/07/19 02:31:09;;;;;;;0.10;0.10;;;20.90;99.90;;;;;;5077495;28;20391;-68
2022/07/19 02:33:35;;;;;;;0.17;0.17;;;20.90;99.90;;;;;;5068988;28;20055;-67
2022/07/19 02:36:00;;;;;;;0.22;0.22;;;20.80;99.90;;;;;;5080816;28;20130;-68
2022/07/19 02:38:26;;;;;;;0.52;0.20;;;20.80;99.90;;;;;;5047926;28;20095;-68
2022/07/19 02:40:51;;;;;;;0.00;0.00;;;20.70;99.90;;;;;;5048523;28;20052;-68
2022/07/19 02:43:17;;;;;;;0.80;0.40;;;20.70;99.90;;;;;;5060220;28;20053;-67
2022/07/19 02:45:42;;;;;;;1.65;0.22;;;20.70;99.90;;;;;;5072577;28;20040;-68
2022/07/19 02:48:11;;;;;;;0.82;0.45;;;20.70;99.90;;;;;;5057417;28;20076;-68
2022/07/19 02:50:37;;;;;;;1.75;0.75;;;20.60;99.90;;;;;;5049970;28;20484;-68
2022/07/19 02:53:02;;;;;;;0.00;0.00;;;20.70;99.90;;;;;;5061972;28;20123;-67
2022/07/19 02:55:28;;;;;;;0.15;0.15;;;20.70;99.90;;;;;;5070764;28;20402;-68
2022/07/19 02:57:54;;;;;;;0.30;0.30;;;20.60;99.90;;;;;;5075386;28;20128;-68
2022/07/19 03:00:20;;;;;;;0.20;0.20;;;20.60;99.90;;;;;;5047993;28;20040;-68
2022/07/19 03:02:45;;;;;;;8.40;1.45;;;20.60;99.90;;;;;;5048334;28;20135;-68
2022/07/19 03:05:11;;;;;;;8.57;2.83;;;20.60;99.90;;;;;;5060405;28;20049;-68
2022/07/19 03:07:36;;;;;;;0.00;0.00;;;20.60;99.90;;;;;;5058904;28;20059;-68
2022/07/19 03:10:03;;;;;;;0.32;0.32;;;20.60;99.90;;;;;;5068613;28;20417;-67
2022/07/19 03:12:29;;;;;;;0.00;0.00;;;20.50;99.90;;;;;;5061306;28;20395;-68
2022/07/19 03:14:54;;;;;;;0.00;0.00;;;20.50;99.90;;;;;;5051349;28;20039;-67
2022/07/19 03:17:20;;;;;;;0.10;0.10;;;20.50;99.90;;;;;;5054568;28;20033;-68
2022/07/19 03:19:46;;;;;;;0.80;0.57;;;20.60;99.90;;;;;;5059472;28;20085;-67
2022/07/19 03:22:12;;;;;;;0.00;0.00;;;20.60;99.90;;;;;;5050201;28;20068;-68
2022/07/19 03:24:37;;;;;;;1.73;0.75;;;20.60;99.90;;;;;;5056264;28;20041;-68
2022/07/19 03:27:03;;;;;;;1.40;0.13;;;20.60;99.90;;;;;;5056563;28;20039;-68
2022/07/19 03:29:29;;;;;;;0.10;0.10;;;20.50;99.90;;;;;;5058357;28;20484;-68
2022/07/19 03:31:54;;;;;;;0.22;0.22;;;20.50;99.90;;;;;;5064115;28;20095;-68
2022/07/19 03:34:20;;;;;;;0.05;0.03;;;20.50;99.90;;;;;;5069120;28;20399;-68
2022/07/19 03:36:45;;;;;;;0.15;0.10;;;20.50;99.90;;;;;;5042606;28;20045;-67
2022/07/19 03:39:11;;;;;;;0.08;0.08;;;20.50;99.90;;;;;;5048820;28;20443;-68
2022/07/19 03:41:37;;;;;;;0.00;0.00;;;20.50;99.90;;;;;;5058057;28;20064;-67
2022/07/19 03:44:02;;;;;;;0.38;0.38;;;20.50;99.90;;;;;;5046183;28;20633;-68
2022/07/19 03:46:29;;;;;;;1.05;0.55;;;20.40;99.90;;;;;;5045912;28;20464;-68
2022/07/19 03:48:55;;;;;;;0.10;0.10;;;20.40;99.90;;;;;;5037443;28;20056;-67
2022/07/19 03:51:21;;;;;;;0.03;0.03;;;20.40;99.90;;;;;;5063187;28;20036;-67
2022/07/19 03:53:47;;;;;;;0.10;0.10;;;20.40;99.90;;;;;;5061894;28;20513;-68
2022/07/19 03:56:13;;;;;;;0.52;0.52;;;20.40;99.90;;;;;;5068752;28;20044;-67
2022/07/19 03:58:39;;;;;;;0.00;0.00;;;20.40;99.90;;;;;;5040367;28;20048;-68
2022/07/19 04:01:06;;;;;;;0.10;0.10;;;20.40;99.90;;;;;;5070650;28;20498;-68
2022/07/19 04:03:39;;;;;;;0.13;0.13;;;20.40;99.90;;;;;;5069277;28;20119;-68
2022/07/19 04:06:10;;;;;;;0.95;0.45;;;20.40;99.90;;;;;;5042478;28;20104;-68
2022/07/19 04:08:35;;;;;;;0.30;0.30;;;20.40;99.90;;;;;;5052699;28;20124;-68
2022/07/19 04:11:01;;;;;;;0.65;0.52;;;20.40;99.90;;;;;;5032540;28;20120;-68
2022/07/19 04:13:27;;;;;;;7.72;0.73;;;20.40;99.90;;;;;;5041186;28;20391;-68
2022/07/19 04:15:52;;;;;;;5.05;1.90;;;20.50;99.90;;;;;;5088937;28;20036;-68
2022/07/19 04:18:18;;;;;;;1.75;1.13;;;20.40;99.90;;;;;;5054233;28;20475;-67
2022/07/19 04:20:44;;;;;;;0.10;0.10;;;20.50;99.90;;;;;;5047742;28;20044;-67
2022/07/19 04:23:09;;;;;;;0.82;0.45;;;20.50;99.90;;;;;;5075837;28;20445;-67
2022/07/19 04:25:35;;;;;;;0.20;0.20;;;20.50;99.90;;;;;;5068364;28;20086;-67
2022/07/19 04:28:01;;;;;;;0.00;0.00;;;20.50;99.90;;;;;;5049003;28;20138;-68
2022/07/19 04:30:28;;;;;;;0.20;0.20;;;20.60;99.90;;;;;;5069121;28;20097;-68
2022/07/19 04:32:53;;;;;;;0.40;0.35;;;20.60;99.90;;;;;;5063712;28;20058;-68
2022/07/19 04:35:19;;;;;;;0.10;0.10;;;20.60;99.90;;;;;;5048348;28;20045;-68
2022/07/19 04:37:45;;;;;;;0.00;0.00;;;20.60;99.90;;;;;;5078063;28;20047;-67
2022/07/19 04:40:10;;;;;;;0.00;0.00;;;20.60;99.90;;;;;;5066864;28;20660;-68
2022/07/19 04:42:36;;;;;;;0.95;0.93;;;20.60;99.90;;;;;;5045119;28;20059;-68
2022/07/19 04:45:02;;;;;;;0.00;0.00;;;20.60;99.90;;;;;;5075418;28;20094;-68
2022/07/19 04:47:27;;;;;;;1.98;0.95;;;20.60;99.90;;;;;;5049014;28;20056;-68
2022/07/19 04:49:53;;;;;;;0.45;0.45;;;20.60;99.90;;;;;;5054182;28;20044;-68
2022/07/19 04:52:18;;;;;;;0.13;0.13;;;20.60;99.90;;;;;;5069268;28;20079;-67
2022/07/19 04:54:44;;;;;;;0.10;0.10;;;20.70;99.90;;;;;;5083408;28;20393;-68
2022/07/19 04:57:10;;;;;;;0.32;0.32;;;20.80;99.90;;;;;;5044362;28;20052;-68
2022/07/19 04:59:35;;;;;;;0.08;0.08;;;20.80;99.90;;;;;;5050323;28;20123;-68
2022/07/19 05:02:01;;;;;;;0.05;0.05;;;20.80;99.90;;;;;;5055945;28;20399;-68
2022/07/19 05:04:26;;;;;;;0.10;0.10;;;20.90;99.90;;;;;;5049246;28;20049;-68
2022/07/19 05:06:56;;;;;;;0.05;0.05;;;20.80;99.90;;;;;;5064191;28;20479;-67
2022/07/19 05:09:26;;;;;;;0.10;0.10;;;20.80;99.90;;;;;;5076052;28;21818;-68
2022/07/19 05:11:53;;;;;;;3.63;1.30;;;20.80;99.90;;;;;;5045070;28;20048;-67
2022/07/19 05:14:19;;;;;;;0.95;0.85;;;20.90;99.90;;;;;;5061022;28;20507;-68
2022/07/19 05:16:45;;;;;;;0.00;0.00;;;20.90;99.90;;;;;;5089327;28;20047;-68
2022/07/19 05:19:10;;;;;;;0.00;0.00;;;20.90;99.90;;;;;;5072298;28;20408;-68
2022/07/19 05:21:36;;;;;;;0.10;0.10;;;20.90;99.90;;;;;;5045307;28;20048;-68
2022/07/19 05:24:02;;;;;;;0.22;0.20;;;21.00;99.90;;;;;;5068058;28;20898;-68
2022/07/19 05:26:28;;;;;;;0.30;0.30;;;21.00;99.90;;;;;;5082245;28;20541;-68
2022/07/19 05:28:53;;;;;;;1.33;0.77;;;21.00;99.90;;;;;;5052851;28;20344;-67
2022/07/19 05:31:19;;;;;;;0.75;0.38;;;21.10;99.90;;;;;;5072668;28;20115;-68
2022/07/19 05:33:44;;;;;;;0.43;0.43;;;21.10;99.90;;;;;;5055187;28;20044;-68
2022/07/19 05:36:10;;;;;;;0.00;0.00;;;21.20;99.90;;;;;;5046759;28;20047;-68
2022/07/19 05:38:39;;;;;;;0.10;0.10;;;21.20;99.90;;;;;;5056926;28;20052;-68
2022/07/19 05:41:06;;;;;;;0.22;0.22;;;21.30;99.90;;;;;;5062498;28;20047;-68
2022/07/19 05:43:33;;;;;;;0.30;0.30;;;21.30;99.90;;;;;;5061585;28;20082;-68
2022/07/19 05:45:59;;;;;;;0.32;0.32;;;21.30;99.90;;;;;;5089960;28;20179;-68
2022/07/19 05:48:24;;;;;;;0.10;0.10;;;21.40;99.90;;;;;;5056020;28;20447;-67
2022/07/19 05:50:50;;;;;;;0.30;0.30;;;21.40;99.90;;;;;;5042712;28;20734;-67
2022/07/19 05:53:17;;;;;;;0.00;0.00;;;21.40;99.90;;;;;;5063167;28;20029;-67
2022/07/19 05:55:43;;;;;;;0.20;0.20;;;21.50;99.90;;;;;;5066157;28;20410;-67
2022/07/19 05:58:08;;;;;;;0.00;0.00;;;21.50;99.90;;;;;;5076872;28;20508;-68
2022/07/19 06:00:34;;;;;;;0.10;0.10;;;21.60;99.90;;;;;;5072016;28;20448;-68
2022/07/19 06:03:00;;;;;;;2.53;0.30;;;21.50;99.90;;;;;;5087379;28;20091;-68
2022/07/19 06:05:25;;;;;;;2.65;0.82;;;21.60;99.90;;;;;;5086031;28;20054;-68
2022/07/19 06:07:51;;;;;;;0.28;0.25;;;21.60;99.90;;;;;;5054505;28;20185;-68
2022/07/19 06:10:16;;;;;;;0.50;0.17;;;21.70;99.90;;;;;;5082173;28;20494;-68
2022/07/19 06:12:42;;;;;;;0.10;0.10;;;21.80;99.90;;;;;;5087858;28;20559;-68
2022/07/19 06:15:08;;;;;;;0.00;0.00;;;21.80;99.90;;;;;;5068997;28;20113;-68
2022/07/19 06:17:34;;;;;;;0.30;0.30;;;21.80;99.90;;;;;;5090045;28;20044;-68
2022/07/19 06:20:00;;;;;;;0.00;0.00;;;21.80;99.90;;;;;;5062018;28;20059;-68
2022/07/19 06:22:30;;;;;;;0.08;0.08;;;21.90;99.90;;;;;;5069779;28;20047;-68
2022/07/19 06:24:55;;;;;;;0.10;0.10;;;22.00;99.90;;;;;;5048169;28;20048;-68
2022/07/19 06:27:21;;;;;;;0.00;0.00;;;22.00;99.90;;;;;;5086984;28;20089;-68
2022/07/19 06:29:46;;;;;;;0.00;0.00;;;22.00;99.90;;;;;;5090413;28;20109;-68
2022/07/19 06:32:12;;;;;;;0.28;0.15;;;22.00;99.90;;;;;;5086875;28;20054;-68
2022/07/19 06:34:37;;;;;;;0.05;0.05;;;22.10;99.90;;;;;;5071361;28;20453;-68
2022/07/19 06:37:03;;;;;;;1.45;0.98;;;22.20;99.90;;;;;;5065581;28;20174;-68
2022/07/19 06:39:29;;;;;;;0.25;0.22;;;22.20;99.90;;;;;;5038334;28;20055;-68
2022/07/19 06:41:54;;;;;;;0.00;0.00;;;22.30;99.90;;;;;;5055477;28;20096;-68
2022/07/19 06:44:20;;;;;;;0.00;0.00;;;22.30;99.90;;;;;;5054778;28;20089;-68
2022/07/19 06:46:45;;;;;;;0.45;0.32;;;22.40;99.90;;;;;;5046966;28;20055;-68
2022/07/19 06:49:11;;;;;;;0.10;0.10;;;22.40;99.90;;;;;;5061918;28;20087;-68
2022/07/19 06:51:36;;;;;;;0.00;0.00;;;22.50;99.90;;;;;;5068554;28;20056;-68
2022/07/19 06:54:02;;;;;;;0.80;0.35;;;22.60;99.90;;;;;;5041875;28;20055;-68
2022/07/19 06:56:27;;;;;;;0.05;0.05;;;22.70;99.90;;;;;;5034546;28;20069;-68
2022/07/19 06:58:53;;;;;;;0.25;0.20;;;22.70;99.90;;;;;;5072362;28;20161;-68
2022/07/19 07:01:19;;;;;;;0.47;0.47;;;22.80;99.90;;;;;;5066702;28;20044;-68
2022/07/19 07:03:45;;;;;;;0.65;0.20;;;22.80;99.90;;;;;;5074286;28;20146;-68
2022/07/19 07:06:11;;;;;;;0.00;0.00;;;22.80;99.90;;;;;;5031414;28;20115;-68
2022/07/19 07:08:36;;;;;;;0.43;0.30;;;22.90;99.90;;;;;;5064416;28;20472;-68
2022/07/19 07:11:02;;;;;;;0.28;0.28;;;23.00;99.90;;;;;;5069068;28;20449;-68
2022/07/19 07:13:28;;;;;;;0.15;0.13;;;23.00;99.90;;;;;;5057243;28;20041;-68
2022/07/19 07:15:53;;;;;;;0.10;0.10;;;23.10;99.90;;;;;;5046395;28;20036;-68
2022/07/19 07:18:19;;;;;;;0.28;0.28;;;23.20;99.90;;;;;;5060013;28;20048;-68
2022/07/19 07:20:44;;;;;;;0.00;0.00;;;23.20;99.90;;;;;;5053081;28;20048;-68
2022/07/19 07:23:10;;;;;;;0.00;0.00;;;23.30;99.90;;;;;;5050329;28;20052;-68
2022/07/19 07:25:36;;;;;;;0.03;0.03;;;23.40;99.90;;;;;;5071212;28;20044;-68
2022/07/19 07:28:01;;;;;;;0.10;0.05;;;23.40;99.90;;;;;;5067672;28;20036;-68
2022/07/19 07:30:27;;;;;;;0.00;0.00;;;23.50;99.90;;;;;;5060456;28;20052;-68
2022/07/19 07:32:53;;;;;;;0.75;0.40;;;23.50;99.90;;;;;;5078725;28;20040;-68
2022/07/19 07:35:18;;;;;;;0.00;0.00;;;23.60;99.90;;;;;;5041541;28;20045;-68
2022/07/19 07:37:44;;;;;;;1.77;0.70;;;23.70;99.90;;;;;;5059690;28;20394;-67
2022/07/19 07:40:10;;;;;;;0.13;0.13;;;23.80;99.90;;;;;;5089078;28;20055;-68
2022/07/19 07:42:35;;;;;;;0.00;0.00;;;23.80;99.90;;;;;;5058113;28;20044;-68
2022/07/19 07:45:01;;;;;;;0.10;0.10;;;23.90;99.90;;;;;;5070251;28;20055;-68
2022/07/19 07:47:27;;;;;;;0.00;0.00;;;24.00;99.90;;;;;;5080956;28;20101;-68
2022/07/19 07:49:52;;;;;;;0.00;0.00;;;24.10;99.90;;;;;;5061169;28;20395;-68
2022/07/19 07:52:18;;;;;;;0.00;0.00;;;24.20;99.90;;;;;;5070241;28;20040;-68
2022/07/19 07:54:44;;;;;;;0.00;0.00;;;24.30;99.90;;;;;;5088945;28;20055;-68
2022/07/19 07:57:09;;;;;;;0.22;0.22;;;24.30;99.90;;;;;;5068754;28;20044;-68
2022/07/19 07:59:35;;;;;;;0.25;0.22;;;24.40;99.90;;;;;;5089029;28;20433;-68
2022/07/19 08:02:01;;;;;;;0.00;0.00;;;24.50;99.90;;;;;;5053538;28;20124;-68
2022/07/19 08:04:27;;;;;;;0.50;0.43;;;24.50;99.90;;;;;;5066288;28;20139;-68
2022/07/19 08:06:53;;;;;;;0.38;0.10;;;24.60;99.90;;;;;;5036707;28;20556;-68
2022/07/19 08:09:18;;;;;;;0.10;0.10;;;24.70;99.90;;;;;;5060771;28;20054;-68
2022/07/19 08:11:45;;;;;;;0.30;0.10;;;24.80;99.90;;;;;;5081439;28;20041;-68
2022/07/19 08:14:11;;;;;;;0.08;0.08;;;24.90;99.90;;;;;;5068738;28;20476;-68
2022/07/19 08:16:36;;;;;;;0.10;0.10;;;25.00;99.90;;;;;;5061509;28;20101;-68
2022/07/19 08:19:02;;;;;;;0.32;0.32;;;25.00;99.90;;;;;;5068278;28;20032;-68
2022/07/19 08:21:28;;;;;;;0.30;0.13;;;25.10;99.90;;;;;;5031386;28;20437;-68
2022/07/19 08:23:54;;;;;;;0.32;0.15;;;25.20;99.90;;;;;;5048421;28;20071;-68
2022/07/19 08:26:20;;;;;;;0.00;0.00;;;25.30;99.90;;;;;;5044935;28;20080;-68
2022/07/19 08:28:47;;;;;;;0.00;0.00;;;25.40;99.90;;;;;;5048152;28;20048;-68
2022/07/19 08:31:13;;;;;;;0.25;0.25;;;25.40;99.90;;;;;;5061113;28;20045;-68
2022/07/19 08:33:40;;;;;;;0.03;0.03;;;25.50;99.90;;;;;;5050050;28;20522;-68
2022/07/19 08:36:06;;;;;;;0.10;0.10;;;25.60;99.90;;;;;;5067598;28;20163;-68
2022/07/19 08:38:32;;;;;;;0.10;0.05;;;25.60;99.90;;;;;;5067956;28;20037;-68
2022/07/19 08:41:01;;;;;;;1.20;0.55;;;25.80;99.90;;;;;;5067497;28;20119;-68
2022/07/19 08:43:26;;;;;;;0.95;0.40;;;25.90;99.90;;;;;;5062181;28;20040;-68
2022/07/19 08:45:53;;;;;;;0.03;0.03;;;26.00;99.90;;;;;;5074208;28;20093;-69
2022/07/19 08:48:20;;;;;;;0.00;0.00;;;26.00;99.90;;;;;;5055058;28;20052;-69
2022/07/19 08:50:46;;;;;;;0.00;0.00;;;26.00;99.90;;;;;;5060668;28;20659;-69
2022/07/19 08:53:13;;;;;;;0.15;0.15;;;26.00;99.90;;;;;;5073923;28;20039;-68
2022/07/19 08:55:38;;;;;;;0.00;0.00;;;26.00;99.90;;;;;;5082215;28;20044;-69
2022/07/19 08:58:06;;;;;;;0.00;0.00;;;26.00;99.90;;;;;;5046454;28;20048;-68
2022/07/19 09:00:33;;;;;;;0.13;0.13;;;26.20;99.90;;;;;;5059595;28;20070;-69
2022/07/19 09:03:01;;;;;;;0.10;0.10;;;26.20;99.90;;;;;;5091477;28;20434;-69
2022/07/19 09:05:28;;;;;;;0.10;0.10;;;26.20;99.90;;;;;;5091738;28;20150;-69
2022/07/19 09:08:10;;;;;;;0.00;0.00;;;26.30;99.90;;;;;;5091375;28;20536;-69
2022/07/19 09:11:13;;;;;;;0.00;0.00;;;26.40;99.90;;;;;;5077610;28;20131;-69
2022/07/19 09:13:30;;;;;;;0.10;0.10;;;26.40;99.90;;;;;;5091416;28;20084;-69
2022/07/19 09:15:56;;;;;;;0.00;0.00;;;26.60;99.90;;;;;;5072003;28;20090;-69
2022/07/19 09:18:29;;;;;;;0.00;0.00;;;26.60;99.90;;;;;;5091247;28;20032;-69
2022/07/19 09:21:00;;;;;;;0.00;0.00;;;26.70;99.90;;;;;;5090817;28;20129;-69
2022/07/19 09:23:27;;;;;;;0.00;0.00;;;26.80;99.90;;;;;;5090800;28;20052;-70
2022/07/19 09:25:57;;;;;;;0.00;0.00;;;26.90;99.20;;;;;;5088595;28;20490;-69
2022/07/19 09:28:24;;;;;;;0.00;0.00;;;27.00;99.60;;;;;;5039018;28;20048;-69
2022/07/19 09:30:53;;;;;;;0.00;0.00;;;27.20;99.00;;;;;;5091493;28;20491;-69
2022/07/19 09:33:22;;;;;;;0.00;0.00;;;27.30;98.20;;;;;;5088762;28;20821;-68
2022/07/19 09:35:51;;;;;;;0.00;0.00;;;27.40;98.90;;;;;;5039392;28;20079;-68
2022/07/19 09:38:20;;;;;;;0.00;0.00;;;27.50;98.80;;;;;;5059986;28;20301;-68
2022/07/19 09:40:47;;;;;;;0.00;0.00;;;27.60;98.70;;;;;;5053411;28;20133;-68
2022/07/19 09:43:13;;;;;;;0.20;0.10;;;27.70;98.70;;;;;;5069725;28;20503;-70
2022/07/19 09:45:38;;;;;;;0.10;0.10;;;27.90;98.40;;;;;;5061199;28;20036;-70
2022/07/19 09:48:04;;;;;;;0.00;0.00;;;28.00;97.80;;;;;;5041049;28;20062;-70
2022/07/19 09:50:30;;;;;;;0.00;0.00;;;28.20;98.30;;;;;;5063738;28;20090;-70
2022/07/19 09:53:00;;;;;;;0.10;0.10;;;28.40;97.40;;;;;;5045311;28;20052;-70
2022/07/19 09:55:27;;;;;;;0.10;0.00;;;28.60;97.50;;;;;;5064024;28;20094;-68
2022/07/19 09:57:55;;;;;;;0.98;0.30;;;28.80;98.10;;;;;;5068583;28;20049;-69
2022/07/19 10:00:22;;;;;;;0.00;0.00;;;29.10;97.00;;;;;;5054124;28;20060;-69
2022/07/19 10:02:53;;;;;;;0.00;0.00;;;29.30;97.30;;;;;;5061828;28;20091;-68
2022/07/19 10:05:20;;;;;;;0.00;0.00;;;29.60;97.40;;;;;;5059361;28;20591;-70
2022/07/19 10:07:46;;;;;;;0.00;0.00;;;29.80;96.30;;;;;;5068993;28;20051;-69
2022/07/19 10:10:14;;;;;;;0.00;0.00;;;30.00;97.40;;;;;;5059969;28;20476;-69
2022/07/19 10:12:41;;;;;;;0.00;0.00;;;30.30;97.00;;;;;;5061072;28;20094;-69
2022/07/19 10:15:09;;;;;;;0.00;0.00;;;30.40;96.10;;;;;;5081443;28;20052;-69
2022/07/19 10:17:58;;;;;;;0.00;0.00;;;30.70;95.90;;;;;;5070148;28;20380;-69
2022/07/19 10:20:25;;;;;;;0.25;0.25;;;30.90;94.30;;;;;;5046865;28;20561;-69
2022/07/19 10:22:51;;;;;;;0.00;0.00;;;31.00;94.80;;;;;;5051473;28;20072;-69
2022/07/19 10:25:18;;;;;;;0.00;0.00;;;31.20;94.60;;;;;;5055746;28;20229;-70
2022/07/19 10:27:50;;;;;;;0.00;0.00;;;31.30;94.70;;;;;;5058200;28;20041;-70
2022/07/19 10:30:17;;;;;;;0.00;0.00;;;31.50;94.10;;;;;;5032586;28;20495;-69
2022/07/19 10:32:44;;;;;;;0.10;0.05;;;31.60;93.90;;;;;;5049456;28;20041;-69
2022/07/19 10:35:19;;;;;;;0.00;0.00;;;31.70;93.50;;;;;;5077507;28;20622;-70
2022/07/19 10:37:47;;;;;;;0.00;0.00;;;31.90;93.70;;;;;;5055894;28;20053;-69
2022/07/19 10:40:12;;;;;;;0.00;0.00;;;32.00;92.20;;;;;;5050323;28;20055;-70
2022/07/19 10:43:10;;;;;;;0.00;0.00;;;32.10;92.60;;;;;;5046118;28;20547;-70
2022/07/19 10:45:38;;;;;;;0.00;0.00;;;32.20;92.50;;;;;;5068996;28;20056;-69
2022/07/19 10:48:07;;;;;;;0.00;0.00;;;32.30;92.10;;;;;;5055765;28;20127;-70
2022/07/19 10:50:43;;;;;;;0.10;0.10;;;32.40;92.40;;;;;;5062003;28;20055;-70
2022/07/19 10:53:08;;;;;;;0.00;0.00;;;32.70;93.20;;;;;;5058023;28;20051;-70
2022/07/19 10:55:36;;;;;;;0.13;0.13;;;32.60;92.30;;;;;;5069358;28;20048;-70
2022/07/19 10:58:11;;;;;;;0.00;0.00;;;32.80;91.80;;;;;;5069605;28;20048;-70
2022/07/19 11:00:49;;;;;;;0.00;0.00;;;32.90;91.40;;;;;;5049745;28;20131;-70
2022/07/19 11:03:23;;;;;;;0.00;0.00;;;33.10;91.10;;;;;;5085591;28;20161;-70
2022/07/19 11:06:01;;;;;;;0.00;0.00;;;33.20;91.30;;;;;;5081433;28;20053;-70
2022/07/19 11:08:41;;;;;;;0.05;0.05;;;33.30;91.00;;;;;;5068082;28;20127;-70
2022/07/19 11:11:13;;;;;;;0.10;0.10;;;33.30;90.70;;;;;;5069391;28;20076;-70
2022/07/19 11:13:42;;;;;;;0.00;0.00;;;33.40;90.40;;;;;;5071469;28;20044;-70
2022/07/19 11:16:08;;;;;;;0.00;0.00;;;33.50;90.70;;;;;;5069007;28;20066;-70
2022/07/19 11:18:33;;;;;;;0.00;0.00;;;33.60;90.00;;;;;;5058715;28;20041;-70
2022/07/19 11:21:04;;;;;;;0.00;0.00;;;33.70;87.50;;;;;;5078469;28;20043;-70
2022/07/19 11:23:35;;;;;;;0.00;0.00;;;33.80;90.20;;;;;;5089321;28;20091;-70
2022/07/19 11:26:11;;;;;;;0.00;0.00;;;34.00;89.20;;;;;;5042739;28;20399;-70
2022/07/19 11:28:39;;;;;;;0.00;0.00;;;33.90;89.40;;;;;;5068363;28;20102;-70
2022/07/19 11:31:22;;;;;;;0.00;0.00;;;34.00;89.10;;;;;;5063131;28;20119;-70
2022/07/19 11:33:52;;;;;;;0.00;0.00;;;34.10;89.10;;;;;;5070501;28;20088;-70
2022/07/19 11:36:18;;;;;;;0.00;0.00;;;34.20;87.90;;;;;;5059723;28;20123;-71
2022/07/19 11:38:46;;;;;;;0.00;0.00;;;34.30;87.80;;;;;;5062730;28;20440;-71
2022/07/19 11:41:20;;;;;;;1.00;0.90;;;34.50;86.70;;;;;;5076947;28;20040;-71
2022/07/19 11:43:52;;;;;;;0.00;0.00;;;34.40;86.50;;;;;;5042174;28;20041;-71
2022/07/19 11:46:29;;;;;;;0.00;0.00;;;34.50;85.70;;;;;;5065615;28;20135;-70
2022/07/19 11:48:57;;;;;;;0.00;0.00;;;34.70;88.40;;;;;;5068052;28;20077;-71
2022/07/19 11:51:23;;;;;;;0.00;0.00;;;34.80;87.20;;;;;;5056873;28;20507;-70
2022/07/19 11:53:51;;;;;;;0.00;0.00;;;34.80;86.20;;;;;;5075413;28;20056;-71
2022/07/19 11:56:24;;;;;;;0.00;0.00;;;34.90;85.60;;;;;;5051382;28;20053;-71
2022/07/19 11:58:51;;;;;;;0.00;0.00;;;35.00;85.00;;;;;;5049149;28;20041;-71
2022/07/19 12:01:24;;;;;;;0.00;0.00;;;35.10;88.20;;;;;;5059909;28;20497;-72
2022/07/19 12:04:03;;;;;;;0.05;0.05;;;35.20;84.00;;;;;;5057931;28;20094;-71
2022/07/19 12:06:49;;;;;;;0.00;0.00;;;35.20;83.50;;;;;;5055771;28;20665;-68
2022/07/19 12:09:36;;;;;;;0.00;0.00;;;35.10;86.10;;;;;;5061634;28;20048;-67
2022/07/19 12:12:13;;;;;;;0.00;0.00;;;35.10;83.90;;;;;;5070670;28;20032;-68
2022/07/19 12:14:40;;;;;;;0.00;0.00;;;35.20;84.00;;;;;;5086206;28;20137;-68
2022/07/19 12:17:19;;;;;;;0.00;0.00;;;35.20;84.80;;;;;;5062531;28;20048;-68
2022/07/19 12:19:48;;;;;;;0.00;0.00;;;35.30;84.30;;;;;;5064348;28;20051;-68
2022/07/19 12:22:27;;;;;;;0.00;0.00;;;35.40;84.40;;;;;;5065461;28;20059;-68
2022/07/19 12:24:53;;;;;;;0.05;0.05;;;35.60;83.50;;;;;;5073911;28;20044;-68
2022/07/19 12:27:20;;;;;;;0.05;0.05;;;35.50;81.10;;;;;;5078397;28;20088;-69
2022/07/19 12:29:47;;;;;;;0.00;0.00;;;35.60;82.60;;;;;;5085324;28;20048;-68
2022/07/19 12:32:37;;;;;;;0.00;0.00;;;35.60;83.50;;;;;;5067526;28;20040;-68
2022/07/19 12:35:11;;;;;;;0.15;0.15;;;35.70;81.80;;;;;;5069810;28;20044;-68
2022/07/19 12:37:44;;;;;;;0.00;0.00;;;35.80;81.40;;;;;;5087264;28;20052;-68
2022/07/19 12:40:18;;;;;;;0.00;0.00;;;35.80;81.20;;;;;;5087432;28;20055;-68
2022/07/19 12:42:59;;;;;;;0.10;0.10;;;35.80;80.90;;;;;;5074083;28;20045;-69
2022/07/19 12:45:26;;;;;;;0.00;0.00;;;35.70;81.80;;;;;;5064384;28;20061;-68
2022/07/19 12:47:53;;;;;;;0.00;0.00;;;35.80;81.70;;;;;;5057628;28;20388;-68
2022/07/19 12:50:23;;;;;;;0.10;0.00;;;35.90;81.10;;;;;;5078649;28;20059;-69